sensor_id;sensor_type;location;lat;lon;timestamp;pressure;altitude;pressure_sealevel;temperature;humidity
31357;BME280;60001;48.404;11.738;2023-04-20T00:01:06;96193.75;;;5.98;84.68
31357;BME280;60001;48.404;11.738;2023-04-20T00:02:39;96204.50;;;6.08;84.17
31357;BME280;60001;48.404;11.738;2023-04-20T00:04:11;96193.53;;;6.11;84.40
31357;BME280;60001;48.404;11.738;2023-04-20T00:05:42;96186.72;;;6.10;84.01
31357;BME280;60001;48.404;11.738;2023-04-20T00:07:14;96186.72;;;6.10;83.87
31357;BME280;60001;48.404;11.738;2023-04-20T00:08:47;96179.88;;;6.09;84.52
31357;BME280;60001;48.404;11.738;2023-04-20T00:10:18;96185.00;;;6.16;84.24
31357;BME280;60001;48.404;11.738;2023-04-20T00:11:50;96175.19;;;6.11;84.44
31357;BME280;60001;48.404;11.738;2023-04-20T00:13:22;96189.34;;;6.22;84.33
31357;BME280;60001;48.404;11.738;2023-04-20T00:14:54;96180.47;;;6.23;84.31
31357;BME280;60001;48.404;11.738;2023-04-20T00:16:26;96178.63;;;6.23;84.16
31357;BME280;60001;48.404;11.738;2023-04-20T00:17:58;96178.19;;;6.26;83.83
31357;BME280;60001;48.404;11.738;2023-04-20T00:19:30;96174.31;;;6.29;83.61
31357;BME280;60001;48.404;11.738;2023-04-20T00:21:02;96168.50;;;6.27;83.62
31357;BME280;60001;48.404;11.738;2023-04-20T00:22:34;96172.47;;;6.29;83.56
31357;BME280;60001;48.404;11.738;2023-04-20T00:24:06;96169.63;;;6.31;83.57
31357;BME280;60001;48.404;11.738;2023-04-20T00:25:38;96158.22;;;6.25;83.53
31357;BME280;60001;48.404;11.738;2023-04-20T00:27:10;96165.97;;;6.32;83.13
31357;BME280;60001;48.404;11.738;2023-04-20T00:28:42;96164.97;;;6.33;83.07
31357;BME280;60001;48.404;11.738;2023-04-20T00:30:14;96162.56;;;6.31;82.93
31357;BME280;60001;48.404;11.738;2023-04-20T00:31:46;96169.63;;;6.31;83.03
31357;BME280;60001;48.404;11.738;2023-04-20T00:33:22;96169.31;;;6.27;83.17
31357;BME280;60001;48.404;11.738;2023-04-20T00:34:52;96163.94;;;6.22;82.75
31357;BME280;60001;48.404;11.738;2023-04-20T00:36:24;96167.13;;;6.24;82.69
31357;BME280;60001;48.404;11.738;2023-04-20T00:37:56;96166.56;;;6.22;82.69
31357;BME280;60001;48.404;11.738;2023-04-20T00:39:28;96165.09;;;6.26;83.01
31357;BME280;60001;48.404;11.738;2023-04-20T00:41:00;96151.84;;;6.21;82.76
31357;BME280;60001;48.404;11.738;2023-04-20T00:42:31;96158.09;;;6.32;82.49
31357;BME280;60001;48.404;11.738;2023-04-20T00:44:06;96155.72;;;6.30;82.64
31357;BME280;60001;48.404;11.738;2023-04-20T00:45:37;96148.66;;;6.31;82.34
31357;BME280;60001;48.404;11.738;2023-04-20T00:47:09;96151.50;;;6.29;82.17
31357;BME280;60001;48.404;11.738;2023-04-20T00:48:42;96152.53;;;6.28;82.43
31357;BME280;60001;48.404;11.738;2023-04-20T00:50:14;96143.31;;;6.26;82.78
31357;BME280;60001;48.404;11.738;2023-04-20T00:51:49;96136.81;;;6.28;82.72
31357;BME280;60001;48.404;11.738;2023-04-20T00:53:20;96133.81;;;6.25;82.62
31357;BME280;60001;48.404;11.738;2023-04-20T00:54:52;96133.38;;;6.16;82.76
31357;BME280;60001;48.404;11.738;2023-04-20T00:56:23;96139.28;;;6.12;83.18
31357;BME280;60001;48.404;11.738;2023-04-20T00:57:55;96134.28;;;6.10;83.10
31357;BME280;60001;48.404;11.738;2023-04-20T00:59:27;96125.50;;;6.16;83.54
31357;BME280;60001;48.404;11.738;2023-04-20T01:00:58;96130.53;;;6.18;83.30
31357;BME280;60001;48.404;11.738;2023-04-20T01:02:30;96118.31;;;6.12;83.01
31357;BME280;60001;48.404;11.738;2023-04-20T01:04:03;96133.94;;;6.07;83.84
31357;BME280;60001;48.404;11.738;2023-04-20T01:05:37;96131.00;;;6.15;83.59
31357;BME280;60001;48.404;11.738;2023-04-20T01:07:09;96129.63;;;6.12;83.74
31357;BME280;60001;48.404;11.738;2023-04-20T01:08:48;96129.63;;;6.12;84.14
31357;BME280;60001;48.404;11.738;2023-04-20T01:10:20;96120.84;;;6.07;83.64
31357;BME280;60001;48.404;11.738;2023-04-20T01:11:52;96120.50;;;6.15;83.92
31357;BME280;60001;48.404;11.738;2023-04-20T01:13:24;96111.59;;;6.16;84.19
31357;BME280;60001;48.404;11.738;2023-04-20T01:14:56;96116.28;;;6.02;84.29
31357;BME280;60001;48.404;11.738;2023-04-20T01:16:28;96113.22;;;6.05;84.44
31357;BME280;60001;48.404;11.738;2023-04-20T01:17:59;96102.16;;;5.91;84.76
31357;BME280;60001;48.404;11.738;2023-04-20T01:19:36;96098.84;;;5.96;84.49
31357;BME280;60001;48.404;11.738;2023-04-20T01:21:08;96105.97;;;5.89;85.04
31357;BME280;60001;48.404;11.738;2023-04-20T01:22:46;96107.09;;;5.81;85.31
31357;BME280;60001;48.404;11.738;2023-04-20T01:24:24;96099.38;;;5.86;86.12
31357;BME280;60001;48.404;11.738;2023-04-20T01:25:57;96102.78;;;5.87;85.67
31357;BME280;60001;48.404;11.738;2023-04-20T01:27:27;96102.56;;;5.88;85.71
31357;BME280;60001;48.404;11.738;2023-04-20T01:28:59;96099.13;;;5.88;85.43
31357;BME280;60001;48.404;11.738;2023-04-20T01:30:31;96102.31;;;5.90;85.95
31357;BME280;60001;48.404;11.738;2023-04-20T01:32:03;96096.09;;;5.91;85.73
31357;BME280;60001;48.404;11.738;2023-04-20T01:33:35;96094.00;;;5.81;85.79
31357;BME280;60001;48.404;11.738;2023-04-20T01:35:07;96088.63;;;5.76;86.44
31357;BME280;60001;48.404;11.738;2023-04-20T01:36:39;96096.97;;;5.85;86.55
31357;BME280;60001;48.404;11.738;2023-04-20T01:38:18;96084.88;;;5.84;86.08
31357;BME280;60001;48.404;11.738;2023-04-20T01:39:50;96084.22;;;5.88;86.07
31357;BME280;60001;48.404;11.738;2023-04-20T01:41:21;96094.94;;;5.87;85.70
31357;BME280;60001;48.404;11.738;2023-04-20T01:42:54;96092.75;;;5.84;85.95
31357;BME280;60001;48.404;11.738;2023-04-20T01:44:25;96089.66;;;5.75;85.98
31357;BME280;60001;48.404;11.738;2023-04-20T01:45:58;96082.59;;;5.75;86.03
31357;BME280;60001;48.404;11.738;2023-04-20T01:47:31;96091.38;;;5.81;86.46
31357;BME280;60001;48.404;11.738;2023-04-20T01:49:03;96094.47;;;5.78;86.17
31357;BME280;60001;48.404;11.738;2023-04-20T01:50:35;96086.81;;;5.76;86.69
31357;BME280;60001;48.404;11.738;2023-04-20T01:52:06;96086.34;;;5.68;86.65
31357;BME280;60001;48.404;11.738;2023-04-20T01:53:39;96085.22;;;5.75;86.79
31357;BME280;60001;48.404;11.738;2023-04-20T01:55:10;96089.53;;;5.70;86.92
31357;BME280;60001;48.404;11.738;2023-04-20T01:56:42;96084.44;;;5.75;86.69
31357;BME280;60001;48.404;11.738;2023-04-20T01:58:14;96069.50;;;5.75;87.11
31357;BME280;60001;48.404;11.738;2023-04-20T01:59:46;96086.94;;;5.82;86.42
31357;BME280;60001;48.404;11.738;2023-04-20T02:01:20;96078.50;;;5.80;86.78
31357;BME280;60001;48.404;11.738;2023-04-20T02:02:51;96082.38;;;5.77;86.81
31357;BME280;60001;48.404;11.738;2023-04-20T02:04:23;96080.09;;;5.81;87.26
31357;BME280;60001;48.404;11.738;2023-04-20T02:05:54;96079.53;;;5.67;87.47
31357;BME280;60001;48.404;11.738;2023-04-20T02:07:26;96062.22;;;5.66;87.55
31357;BME280;60001;48.404;11.738;2023-04-20T02:08:58;96074.66;;;5.70;87.54
31357;BME280;60001;48.404;11.738;2023-04-20T02:10:30;96078.06;;;5.71;87.98
31357;BME280;60001;48.404;11.738;2023-04-20T02:12:02;96073.72;;;5.65;88.08
31357;BME280;60001;48.404;11.738;2023-04-20T02:13:33;96072.47;;;5.67;87.88
31357;BME280;60001;48.404;11.738;2023-04-20T02:15:09;96064.84;;;5.66;88.10
31357;BME280;60001;48.404;11.738;2023-04-20T02:16:41;96073.38;;;5.73;88.25
31357;BME280;60001;48.404;11.738;2023-04-20T02:18:13;96065.63;;;5.66;88.33
31357;BME280;60001;48.404;11.738;2023-04-20T02:19:46;96067.69;;;5.76;88.46
31357;BME280;60001;48.404;11.738;2023-04-20T02:21:17;96073.28;;;5.80;87.85
31357;BME280;60001;48.404;11.738;2023-04-20T02:22:49;96073.50;;;5.78;87.97
31357;BME280;60001;48.404;11.738;2023-04-20T02:24:22;96072.59;;;5.72;88.15
31357;BME280;60001;48.404;11.738;2023-04-20T02:25:54;96073.63;;;5.71;88.14
31357;BME280;60001;48.404;11.738;2023-04-20T02:27:25;96069.16;;;5.72;88.20
31357;BME280;60001;48.404;11.738;2023-04-20T02:28:57;96052.41;;;5.61;88.17
31357;BME280;60001;48.404;11.738;2023-04-20T02:30:28;96069.84;;;5.67;88.63
31357;BME280;60001;48.404;11.738;2023-04-20T02:32:00;96064.38;;;5.69;88.33
31357;BME280;60001;48.404;11.738;2023-04-20T02:33:31;96063.81;;;5.67;88.34
31357;BME280;60001;48.404;11.738;2023-04-20T02:35:03;96060.25;;;5.61;88.97
31357;BME280;60001;48.404;11.738;2023-04-20T02:36:35;96069.84;;;5.67;88.66
31357;BME280;60001;48.404;11.738;2023-04-20T02:38:07;96067.78;;;5.69;88.37
31357;BME280;60001;48.404;11.738;2023-04-20T02:39:40;96069.84;;;5.67;88.23
31357;BME280;60001;48.404;11.738;2023-04-20T02:41:11;96071.91;;;5.65;88.59
31357;BME280;60001;48.404;11.738;2023-04-20T02:42:43;96070.31;;;5.64;88.01
31357;BME280;60001;48.404;11.738;2023-04-20T02:44:14;96063.91;;;5.60;88.82
31357;BME280;60001;48.404;11.738;2023-04-20T02:45:46;96064.47;;;5.62;88.45
31357;BME280;60001;48.404;11.738;2023-04-20T02:47:20;96053.41;;;5.48;88.93
31357;BME280;60001;48.404;11.738;2023-04-20T02:48:52;96066.09;;;5.63;88.89
31357;BME280;60001;48.404;11.738;2023-04-20T02:50:25;96054.47;;;5.59;89.18
31357;BME280;60001;48.404;11.738;2023-04-20T02:51:57;96053.66;;;5.59;88.96
31357;BME280;60001;48.404;11.738;2023-04-20T02:53:29;96057.22;;;5.64;88.83
31357;BME280;60001;48.404;11.738;2023-04-20T02:55:02;96060.16;;;5.68;88.64
31357;BME280;60001;48.404;11.738;2023-04-20T02:56:33;96029.63;;;5.50;88.82
31357;BME280;60001;48.404;11.738;2023-04-20T02:58:05;96058.69;;;5.72;88.93
31357;BME280;60001;48.404;11.738;2023-04-20T02:59:37;96061.06;;;5.73;88.41
31357;BME280;60001;48.404;11.738;2023-04-20T03:01:09;96050.16;;;5.65;88.52
31357;BME280;60001;48.404;11.738;2023-04-20T03:02:39;96031.91;;;5.58;88.68
31357;BME280;60001;48.404;11.738;2023-04-20T03:04:11;96048.53;;;5.75;88.77
31357;BME280;60001;48.404;11.738;2023-04-20T03:05:43;96053.09;;;5.68;88.45
31357;BME280;60001;48.404;11.738;2023-04-20T03:07:15;96046.16;;;5.74;88.54
31357;BME280;60001;48.404;11.738;2023-04-20T03:08:47;96050.84;;;5.72;88.49
31357;BME280;60001;48.404;11.738;2023-04-20T03:10:22;96036.94;;;5.71;88.73
31357;BME280;60001;48.404;11.738;2023-04-20T03:11:54;96036.72;;;5.73;88.78
31357;BME280;60001;48.404;11.738;2023-04-20T03:13:25;96023.94;;;5.65;88.61
31357;BME280;60001;48.404;11.738;2023-04-20T03:14:57;96042.28;;;5.76;88.58
31357;BME280;60001;48.404;11.738;2023-04-20T03:16:27;96042.75;;;5.73;88.47
31357;BME280;60001;48.404;11.738;2023-04-20T03:17:59;96036.34;;;5.69;88.62
31357;BME280;60001;48.404;11.738;2023-04-20T03:19:31;96035.69;;;5.74;88.28
31357;BME280;60001;48.404;11.738;2023-04-20T03:21:03;96043.22;;;5.70;88.72
31357;BME280;60001;48.404;11.738;2023-04-20T03:22:34;96042.28;;;5.76;88.66
31357;BME280;60001;48.404;11.738;2023-04-20T03:24:06;96039.66;;;5.76;88.36
31357;BME280;60001;48.404;11.738;2023-04-20T03:25:39;96041.72;;;5.74;88.49
31357;BME280;60001;48.404;11.738;2023-04-20T03:27:12;96044.34;;;5.74;88.86
31357;BME280;60001;48.404;11.738;2023-04-20T03:28:43;96039.66;;;5.76;88.45
31357;BME280;60001;48.404;11.738;2023-04-20T03:30:14;96044.00;;;5.83;88.31
31357;BME280;60001;48.404;11.738;2023-04-20T03:31:46;96044.34;;;5.74;88.55
31357;BME280;60001;48.404;11.738;2023-04-20T03:33:21;96043.91;;;5.77;88.73
31357;BME280;60001;48.404;11.738;2023-04-20T03:34:52;96038.66;;;5.77;88.45
31357;BME280;60001;48.404;11.738;2023-04-20T03:36:23;96042.06;;;5.78;89.27
31357;BME280;60001;48.404;11.738;2023-04-20T03:37:55;96035.00;;;5.78;88.73
31357;BME280;60001;48.404;11.738;2023-04-20T03:39:27;96038.97;;;5.81;88.65
31357;BME280;60001;48.404;11.738;2023-04-20T03:41:00;96028.38;;;5.76;88.87
31357;BME280;60001;48.404;11.738;2023-04-20T03:42:32;96041.03;;;5.79;89.05
31357;BME280;60001;48.404;11.738;2023-04-20T03:44:03;96030.91;;;5.71;89.15
31357;BME280;60001;48.404;11.738;2023-04-20T03:45:36;96035.13;;;5.72;89.10
31357;BME280;60001;48.404;11.738;2023-04-20T03:47:08;96032.25;;;5.73;89.16
31357;BME280;60001;48.404;11.738;2023-04-20T03:48:43;96034.09;;;5.73;89.24
31357;BME280;60001;48.404;11.738;2023-04-20T03:50:15;96035.91;;;5.72;89.19
31357;BME280;60001;48.404;11.738;2023-04-20T03:51:45;96038.97;;;5.69;89.77
31357;BME280;60001;48.404;11.738;2023-04-20T03:53:22;96022.56;;;5.62;89.40
31357;BME280;60001;48.404;11.738;2023-04-20T03:54:54;96033.63;;;5.64;89.71
31357;BME280;60001;48.404;11.738;2023-04-20T03:56:27;96030.22;;;5.64;90.03
31357;BME280;60001;48.404;11.738;2023-04-20T03:57:59;96036.03;;;5.66;90.02
31357;BME280;60001;48.404;11.738;2023-04-20T03:59:29;96028.50;;;5.69;90.15
31357;BME280;60001;48.404;11.738;2023-04-20T04:01:03;96019.63;;;5.59;90.15
31357;BME280;60001;48.404;11.738;2023-04-20T04:02:37;96020.06;;;5.67;90.04
31357;BME280;60001;48.404;11.738;2023-04-20T04:04:08;96030.91;;;5.71;89.85
31357;BME280;60001;48.404;11.738;2023-04-20T04:05:40;96012.88;;;5.63;89.81
31357;BME280;60001;48.404;11.738;2023-04-20T04:07:12;96025.88;;;5.69;90.09
31357;BME280;60001;48.404;11.738;2023-04-20T04:08:44;96024.75;;;5.65;89.97
31357;BME280;60001;48.404;11.738;2023-04-20T04:10:16;96024.19;;;5.63;90.68
31357;BME280;60001;48.404;11.738;2023-04-20T04:11:52;96027.59;;;5.64;90.03
31357;BME280;60001;48.404;11.738;2023-04-20T04:13:23;96028.97;;;5.66;90.56
31357;BME280;60001;48.404;11.738;2023-04-20T04:14:55;96020.88;;;5.68;90.26
31357;BME280;60001;48.404;11.738;2023-04-20T04:16:27;96020.75;;;5.63;90.83
31357;BME280;60001;48.404;11.738;2023-04-20T04:17:59;96022.69;;;5.67;90.39
31357;BME280;60001;48.404;11.738;2023-04-20T04:19:30;96022.56;;;5.62;90.01
31357;BME280;60001;48.404;11.738;2023-04-20T04:21:01;96017.22;;;5.57;90.69
31357;BME280;60001;48.404;11.738;2023-04-20T04:22:33;96014.72;;;5.62;90.63
31357;BME280;60001;48.404;11.738;2023-04-20T04:24:05;96010.16;;;5.58;90.82
31357;BME280;60001;48.404;11.738;2023-04-20T04:25:37;96019.63;;;5.70;90.72
31357;BME280;60001;48.404;11.738;2023-04-20T04:27:11;96018.00;;;5.69;90.44
31357;BME280;60001;48.404;11.738;2023-04-20T04:28:44;96019.16;;;5.73;90.21
31357;BME280;60001;48.404;11.738;2023-04-20T04:30:16;96004.81;;;5.64;89.99
31357;BME280;60001;48.404;11.738;2023-04-20T04:31:49;96024.97;;;5.64;90.01
31357;BME280;60001;48.404;11.738;2023-04-20T04:33:21;96020.41;;;5.59;89.93
31357;BME280;60001;48.404;11.738;2023-04-20T04:34:52;96018.59;;;5.60;90.54
31357;BME280;60001;48.404;11.738;2023-04-20T04:36:24;96027.47;;;5.59;90.11
31357;BME280;60001;48.404;11.738;2023-04-20T04:37:56;96021.09;;;5.55;89.64
31357;BME280;60001;48.404;11.738;2023-04-20T04:39:29;96022.34;;;5.52;89.69
31357;BME280;60001;48.404;11.738;2023-04-20T04:41:00;96011.50;;;5.48;89.53
31357;BME280;60001;48.404;11.738;2023-04-20T04:42:35;96021.09;;;5.55;89.54
31357;BME280;60001;48.404;11.738;2023-04-20T04:44:07;96011.97;;;5.45;89.59
31357;BME280;60001;48.404;11.738;2023-04-20T04:45:40;96018.22;;;5.44;89.06
31357;BME280;60001;48.404;11.738;2023-04-20T04:47:12;96015.16;;;5.47;88.57
31357;BME280;60001;48.404;11.738;2023-04-20T04:48:44;96015.94;;;5.36;88.43
31357;BME280;60001;48.404;11.738;2023-04-20T04:50:16;96009.78;;;5.31;88.64
31357;BME280;60001;48.404;11.738;2023-04-20T04:51:51;96012.53;;;5.36;88.52
31357;BME280;60001;48.404;11.738;2023-04-20T04:53:22;96014.69;;;5.39;88.76
31357;BME280;60001;48.404;11.738;2023-04-20T04:54:54;96011.03;;;5.40;88.07
31357;BME280;60001;48.404;11.738;2023-04-20T04:56:25;96016.66;;;5.43;88.25
31357;BME280;60001;48.404;11.738;2023-04-20T04:57:59;96019.69;;;5.40;88.55
31357;BME280;60001;48.404;11.738;2023-04-20T04:59:31;96015.06;;;5.42;88.71
31357;BME280;60001;48.404;11.738;2023-04-20T05:01:02;96011.38;;;5.32;88.15
31357;BME280;60001;48.404;11.738;2023-04-20T05:02:34;96016.16;;;5.35;88.27
31357;BME280;60001;48.404;11.738;2023-04-20T05:04:06;96018.34;;;5.38;87.76
31357;BME280;60001;48.404;11.738;2023-04-20T05:05:41;96019.38;;;5.37;87.82
31357;BME280;60001;48.404;11.738;2023-04-20T05:07:12;96011.94;;;5.34;87.90
31357;BME280;60001;48.404;11.738;2023-04-20T05:08:45;96020.50;;;5.41;87.82
31357;BME280;60001;48.404;11.738;2023-04-20T05:10:18;96023.69;;;5.43;87.80
31357;BME280;60001;48.404;11.738;2023-04-20T05:11:50;96017.88;;;5.41;88.06
31357;BME280;60001;48.404;11.738;2023-04-20T05:13:23;96017.53;;;5.37;88.03
31357;BME280;60001;48.404;11.738;2023-04-20T05:14:54;96014.78;;;5.32;88.03
31357;BME280;60001;48.404;11.738;2023-04-20T05:16:26;96020.38;;;5.36;87.76
31357;BME280;60001;48.404;11.738;2023-04-20T05:17:58;96020.59;;;5.34;87.40
31357;BME280;60001;48.404;11.738;2023-04-20T05:19:31;96024.00;;;5.35;88.08
31357;BME280;60001;48.404;11.738;2023-04-20T05:21:03;96021.75;;;5.38;87.95
31357;BME280;60001;48.404;11.738;2023-04-20T05:22:35;96023.25;;;5.46;87.92
31357;BME280;60001;48.404;11.738;2023-04-20T05:24:06;96027.69;;;5.45;87.08
31357;BME280;60001;48.404;11.738;2023-04-20T05:25:38;96023.69;;;5.43;86.63
31357;BME280;60001;48.404;11.738;2023-04-20T05:27:10;96026.53;;;5.41;86.75
31357;BME280;60001;48.404;11.738;2023-04-20T05:28:43;96024.25;;;5.45;87.06
31357;BME280;60001;48.404;11.738;2023-04-20T05:30:15;96017.44;;;5.44;86.62
31357;BME280;60001;48.404;11.738;2023-04-20T05:31:47;96026.41;;;5.48;86.61
31357;BME280;60001;48.404;11.738;2023-04-20T05:33:19;96027.00;;;5.50;86.37
31357;BME280;60001;48.404;11.738;2023-04-20T05:34:51;96012.44;;;5.42;86.28
31357;BME280;60001;48.404;11.738;2023-04-20T05:36:22;96017.22;;;5.45;85.93
31357;BME280;60001;48.404;11.738;2023-04-20T05:37:53;96019.94;;;5.50;86.31
31357;BME280;60001;48.404;11.738;2023-04-20T05:39:25;96002.16;;;5.41;86.03
31357;BME280;60001;48.404;11.738;2023-04-20T05:40:57;96024.81;;;5.47;85.74
31357;BME280;60001;48.404;11.738;2023-04-20T05:42:29;96026.09;;;5.44;85.83
31357;BME280;60001;48.404;11.738;2023-04-20T05:44:02;96014.00;;;5.32;85.88
31357;BME280;60001;48.404;11.738;2023-04-20T05:45:34;96023.81;;;5.36;85.28
31357;BME280;60001;48.404;11.738;2023-04-20T05:47:06;96009.78;;;5.31;86.36
31357;BME280;60001;48.404;11.738;2023-04-20T05:48:38;96018.34;;;5.38;86.09
31357;BME280;60001;48.404;11.738;2023-04-20T05:50:10;96009.59;;;5.44;86.26
31357;BME280;60001;48.404;11.738;2023-04-20T05:51:42;96019.59;;;5.47;85.72
31357;BME280;60001;48.404;11.738;2023-04-20T05:53:13;96017.91;;;5.53;85.92
31357;BME280;60001;48.404;11.738;2023-04-20T05:54:45;96019.50;;;5.54;85.58
31357;BME280;60001;48.404;11.738;2023-04-20T05:56:21;96019.50;;;5.54;85.89
31357;BME280;60001;48.404;11.738;2023-04-20T05:57:53;96020.84;;;5.56;85.81
31357;BME280;60001;48.404;11.738;2023-04-20T05:59:26;96018.34;;;5.61;86.03
31357;BME280;60001;48.404;11.738;2023-04-20T06:00:58;96009.91;;;5.47;87.01
31357;BME280;60001;48.404;11.738;2023-04-20T06:02:31;96017.56;;;5.61;86.27
31357;BME280;60001;48.404;11.738;2023-04-20T06:04:03;96022.22;;;5.59;85.74
31357;BME280;60001;48.404;11.738;2023-04-20T06:05:34;96021.88;;;5.55;86.13
31357;BME280;60001;48.404;11.738;2023-04-20T06:07:06;96024.97;;;5.64;86.44
31357;BME280;60001;48.404;11.738;2023-04-20T06:08:38;96019.16;;;5.62;86.30
31357;BME280;60001;48.404;11.738;2023-04-20T06:10:10;96022.13;;;5.65;86.19
31357;BME280;60001;48.404;11.738;2023-04-20T06:11:41;96018.72;;;5.65;85.93
31357;BME280;60001;48.404;11.738;2023-04-20T06:13:13;96021.78;;;5.62;85.82
31357;BME280;60001;48.404;11.738;2023-04-20T06:14:46;96018.25;;;5.68;86.34
31357;BME280;60001;48.404;11.738;2023-04-20T06:16:21;96018.69;;;5.76;86.12
31357;BME280;60001;48.404;11.738;2023-04-20T06:17:53;96009.84;;;5.77;85.63
31357;BME280;60001;48.404;11.738;2023-04-20T06:19:25;96006.97;;;5.79;85.57
31357;BME280;60001;48.404;11.738;2023-04-20T06:20:56;96007.09;;;5.84;85.47
31357;BME280;60001;48.404;11.738;2023-04-20T06:22:29;96010.53;;;5.85;86.12
31357;BME280;60001;48.404;11.738;2023-04-20T06:24:01;96010.84;;;5.88;85.88
31357;BME280;60001;48.404;11.738;2023-04-20T06:25:34;96011.53;;;5.84;85.23
31357;BME280;60001;48.404;11.738;2023-04-20T06:27:06;96026.34;;;5.78;85.00
31357;BME280;60001;48.404;11.738;2023-04-20T06:28:38;96029.97;;;5.77;84.95
31357;BME280;60001;48.404;11.738;2023-04-20T06:30:12;96019.84;;;5.81;85.14
31357;BME280;60001;48.404;11.738;2023-04-20T06:31:44;96020.09;;;5.79;85.25
31357;BME280;60001;48.404;11.738;2023-04-20T06:33:17;96016.19;;;5.82;85.60
31357;BME280;60001;48.404;11.738;2023-04-20T06:34:50;96013.25;;;5.78;85.27
31357;BME280;60001;48.404;11.738;2023-04-20T06:36:22;96013.13;;;5.73;84.37
31357;BME280;60001;48.404;11.738;2023-04-20T06:37:54;96011.31;;;5.73;84.77
31357;BME280;60001;48.404;11.738;2023-04-20T06:39:26;96006.97;;;5.67;84.66
31357;BME280;60001;48.404;11.738;2023-04-20T06:40:59;96004.47;;;5.72;84.87
31357;BME280;60001;48.404;11.738;2023-04-20T06:42:32;96000.94;;;5.67;84.45
31357;BME280;60001;48.404;11.738;2023-04-20T06:44:04;95995.69;;;5.67;84.30
31357;BME280;60001;48.404;11.738;2023-04-20T06:45:37;95993.06;;;5.55;83.86
31357;BME280;60001;48.404;11.738;2023-04-20T06:47:09;95997.75;;;5.65;84.05
31357;BME280;60001;48.404;11.738;2023-04-20T06:48:41;95986.69;;;5.63;83.57
31357;BME280;60001;48.404;11.738;2023-04-20T06:50:13;95996.72;;;5.66;83.80
31357;BME280;60001;48.404;11.738;2023-04-20T06:51:48;95997.28;;;5.68;84.51
31357;BME280;60001;48.404;11.738;2023-04-20T06:53:20;95995.81;;;5.72;83.72
31357;BME280;60001;48.404;11.738;2023-04-20T06:54:52;95988.06;;;5.77;84.15
31357;BME280;60001;48.404;11.738;2023-04-20T06:56:23;95989.88;;;5.76;83.88
31357;BME280;60001;48.404;11.738;2023-04-20T06:57:58;95991.50;;;5.77;84.22
31357;BME280;60001;48.404;11.738;2023-04-20T06:59:30;95995.72;;;5.78;83.87
31357;BME280;60001;48.404;11.738;2023-04-20T07:01:04;95995.59;;;5.73;84.29
31357;BME280;60001;48.404;11.738;2023-04-20T07:02:43;95992.53;;;5.65;83.94
31357;BME280;60001;48.404;11.738;2023-04-20T07:04:15;95984.19;;;5.56;84.58
31357;BME280;60001;48.404;11.738;2023-04-20T07:05:49;95991.13;;;5.62;84.38
31357;BME280;60001;48.404;11.738;2023-04-20T07:07:21;95988.41;;;5.57;85.06
31357;BME280;60001;48.404;11.738;2023-04-20T07:08:53;95996.84;;;5.59;84.73
31357;BME280;60001;48.404;11.738;2023-04-20T07:10:25;95971.91;;;5.45;84.43
31357;BME280;60001;48.404;11.738;2023-04-20T07:11:56;95988.53;;;5.50;84.45
31357;BME280;60001;48.404;11.738;2023-04-20T07:13:29;95977.38;;;5.43;85.48
31357;BME280;60001;48.404;11.738;2023-04-20T07:15:02;95983.06;;;5.52;85.37
31357;BME280;60001;48.404;11.738;2023-04-20T07:16:35;95981.13;;;5.59;85.34
31357;BME280;60001;48.404;11.738;2023-04-20T07:18:07;95983.06;;;5.64;85.23
31357;BME280;60001;48.404;11.738;2023-04-20T07:19:39;95987.50;;;5.63;84.68
31357;BME280;60001;48.404;11.738;2023-04-20T07:21:12;95986.38;;;5.59;84.40
31357;BME280;60001;48.404;11.738;2023-04-20T07:22:44;95975.19;;;5.52;84.65
31357;BME280;60001;48.404;11.738;2023-04-20T07:24:16;95986.13;;;5.49;84.95
31357;BME280;60001;48.404;11.738;2023-04-20T07:25:49;95979.19;;;5.43;84.61
31357;BME280;60001;48.404;11.738;2023-04-20T07:27:21;95986.34;;;5.47;85.15
31357;BME280;60001;48.404;11.738;2023-04-20T07:28:54;95991.72;;;5.53;85.21
31357;BME280;60001;48.404;11.738;2023-04-20T07:30:26;95988.19;;;5.59;85.08
31357;BME280;60001;48.404;11.738;2023-04-20T07:31:59;95976.78;;;5.53;84.41
31357;BME280;60001;48.404;11.738;2023-04-20T07:33:31;95987.50;;;5.52;84.17
31357;BME280;60001;48.404;11.738;2023-04-20T07:35:05;95978.97;;;5.44;84.84
31357;BME280;60001;48.404;11.738;2023-04-20T07:36:38;95985.44;;;5.42;84.58
31357;BME280;60001;48.404;11.738;2023-04-20T07:38:10;95990.47;;;5.43;85.18
31357;BME280;60001;48.404;11.738;2023-04-20T07:39:43;95989.06;;;5.41;85.26
31357;BME280;60001;48.404;11.738;2023-04-20T07:41:15;95996.03;;;5.47;84.38
31357;BME280;60001;48.404;11.738;2023-04-20T07:42:47;95980.53;;;5.45;84.49
31357;BME280;60001;48.404;11.738;2023-04-20T07:44:18;95989.78;;;5.36;84.33
31357;BME280;60001;48.404;11.738;2023-04-20T07:45:53;95985.88;;;5.39;84.10
31357;BME280;60001;48.404;11.738;2023-04-20T07:47:26;95981.13;;;5.36;84.31
31357;BME280;60001;48.404;11.738;2023-04-20T07:48:58;95988.97;;;5.47;84.39
31357;BME280;60001;48.404;11.738;2023-04-20T07:50:29;95984.41;;;5.55;84.49
31357;BME280;60001;48.404;11.738;2023-04-20T07:52:01;95979.19;;;5.55;84.04
31357;BME280;60001;48.404;11.738;2023-04-20T07:53:33;95983.38;;;5.56;83.82
31357;BME280;60001;48.404;11.738;2023-04-20T07:55:06;95989.31;;;5.63;83.79
31357;BME280;60001;48.404;11.738;2023-04-20T07:56:40;95996.84;;;5.59;83.73
31357;BME280;60001;48.404;11.738;2023-04-20T07:58:13;95993.88;;;5.67;83.69
31357;BME280;60001;48.404;11.738;2023-04-20T07:59:45;96000.16;;;5.66;82.86
31357;BME280;60001;48.404;11.738;2023-04-20T08:01:22;95999.13;;;5.67;83.09
31357;BME280;60001;48.404;11.738;2023-04-20T08:02:58;95995.56;;;5.62;83.29
31357;BME280;60001;48.404;11.738;2023-04-20T08:04:29;96016.63;;;5.55;83.19
31357;BME280;60001;48.404;11.738;2023-04-20T08:06:01;95999.44;;;5.47;83.12
31357;BME280;60001;48.404;11.738;2023-04-20T08:07:33;96002.63;;;5.61;83.69
31357;BME280;60001;48.404;11.738;2023-04-20T08:09:04;95997.53;;;5.66;82.89